sensor_id;sensor_type;location;lat;lon;timestamp;pressure;altitude;pressure_sealevel;temperature;humidity
79362;BME280;68830;47.566;19.012;2023-05-16T00:00:25;99522.38;;;13.87;82.30
79362;BME280;68830;47.566;19.012;2023-05-16T00:03:29;99506.97;;;13.83;82.78
79362;BME280;68830;47.566;19.012;2023-05-16T00:06:34;99462.84;;;13.51;82.86
79362;BME280;68830;47.566;19.012;2023-05-16T00:09:37;99471.06;;;13.64;82.36
79362;BME280;68830;47.566;19.012;2023-05-16T00:12:39;99434.78;;;13.48;82.96
79362;BME280;68830;47.566;19.012;2023-05-16T00:15:41;99436.06;;;13.52;82.03
79362;BME280;68830;47.566;19.012;2023-05-16T00:18:47;99427.25;;;13.52;83.19
79362;BME280;68830;47.566;19.012;2023-05-16T00:21:50;99438.19;;;13.57;82.72
79362;BME280;68830;47.566;19.012;2023-05-16T00:24:52;99467.41;;;13.80;83.09
79362;BME280;68830;47.566;19.012;2023-05-16T00:27:54;99426.72;;;13.56;81.84
79362;BME280;68830;47.566;19.012;2023-05-16T00:30:56;99429.38;;;13.56;83.45
79362;BME280;68830;47.566;19.012;2023-05-16T00:33:59;99434.69;;;13.56;82.14
79362;BME280;68830;47.566;19.012;2023-05-16T00:37:03;99435.16;;;13.60;82.53
79362;BME280;68830;47.566;19.012;2023-05-16T00:40:06;99470.53;;;13.83;82.22
79362;BME280;68830;47.566;19.012;2023-05-16T00:43:09;99452.88;;;13.67;82.12
79362;BME280;68830;47.566;19.012;2023-05-16T00:46:12;99454.44;;;13.76;82.54
79362;BME280;68830;47.566;19.012;2023-05-16T00:49:16;99434.31;;;13.59;82.31
79362;BME280;68830;47.566;19.012;2023-05-16T00:52:24;99424.16;;;13.48;83.25
79362;BME280;68830;47.566;19.012;2023-05-16T00:55:27;99466.28;;;13.74;83.11
79362;BME280;68830;47.566;19.012;2023-05-16T00:58:32;99440.38;;;13.53;81.59
79362;BME280;68830;47.566;19.012;2023-05-16T01:01:35;99447.06;;;13.49;82.46
79362;BME280;68830;47.566;19.012;2023-05-16T01:04:39;99442.44;;;13.43;83.63
79362;BME280;68830;47.566;19.012;2023-05-16T01:07:43;99519.63;;;13.81;83.25
79362;BME280;68830;47.566;19.012;2023-05-16T01:10:51;99459.78;;;13.39;84.37
79362;BME280;68830;47.566;19.012;2023-05-16T01:14:04;99492.97;;;13.66;84.70
79362;BME280;68830;47.566;19.012;2023-05-16T01:17:18;99449.69;;;13.34;84.68
79362;BME280;68830;47.566;19.012;2023-05-16T01:20:29;99445.19;;;13.35;84.33
79362;BME280;68830;47.566;19.012;2023-05-16T01:23:46;99472.66;;;13.50;85.25
79362;BME280;68830;47.566;19.012;2023-05-16T01:27:04;99449.97;;;13.39;84.95
79362;BME280;68830;47.566;19.012;2023-05-16T01:30:14;99432.09;;;13.33;84.73
79362;BME280;68830;47.566;19.012;2023-05-16T01:33:17;99506.84;;;13.76;83.92
79362;BME280;68830;47.566;19.012;2023-05-16T01:36:23;99447.03;;;13.34;84.30
79362;BME280;68830;47.566;19.012;2023-05-16T01:39:33;99485.25;;;13.56;85.06
79362;BME280;68830;47.566;19.012;2023-05-16T01:42:41;99512.34;;;13.74;85.24
79362;BME280;68830;47.566;19.012;2023-05-16T01:45:49;99440.56;;;13.29;85.15
79362;BME280;68830;47.566;19.012;2023-05-16T01:48:53;99434.84;;;13.40;85.16
79362;BME280;68830;47.566;19.012;2023-05-16T01:52:03;99489.41;;;13.73;85.15
79362;BME280;68830;47.566;19.012;2023-05-16T01:55:09;99436.94;;;13.44;85.45
79362;BME280;68830;47.566;19.012;2023-05-16T01:58:16;99435.56;;;13.34;85.28
79362;BME280;68830;47.566;19.012;2023-05-16T02:01:21;99441.44;;;13.44;84.99
79362;BME280;68830;47.566;19.012;2023-05-16T02:04:24;99398.13;;;13.21;85.05
79362;BME280;68830;47.566;19.012;2023-05-16T02:07:27;99402.47;;;13.36;85.32
79362;BME280;68830;47.566;19.012;2023-05-16T02:10:30;99428.09;;;13.52;85.12
79362;BME280;68830;47.566;19.012;2023-05-16T02:13:35;99396.13;;;13.37;85.33
79362;BME280;68830;47.566;19.012;2023-05-16T02:16:37;99398.16;;;13.35;85.05
79362;BME280;68830;47.566;19.012;2023-05-16T02:19:39;99402.81;;;13.33;85.03
79362;BME280;68830;47.566;19.012;2023-05-16T02:22:44;99443.88;;;13.54;84.88
79362;BME280;68830;47.566;19.012;2023-05-16T02:25:48;99464.06;;;13.63;85.47
79362;BME280;68830;47.566;19.012;2023-05-16T02:28:52;99401.50;;;13.29;85.69
79362;BME280;68830;47.566;19.012;2023-05-16T02:31:55;99404.47;;;13.34;85.34
79362;BME280;68830;47.566;19.012;2023-05-16T02:35:05;99378.69;;;13.20;85.06
79362;BME280;68830;47.566;19.012;2023-05-16T02:38:09;99389.78;;;13.24;85.04
79362;BME280;68830;47.566;19.012;2023-05-16T02:41:11;99385.81;;;13.20;83.98
79362;BME280;68830;47.566;19.012;2023-05-16T02:44:15;99419.34;;;13.43;85.42
79362;BME280;68830;47.566;19.012;2023-05-16T02:47:17;99421.81;;;13.45;84.40
79362;BME280;68830;47.566;19.012;2023-05-16T02:50:24;99406.00;;;13.29;84.01
79362;BME280;68830;47.566;19.012;2023-05-16T02:53:26;99382.00;;;13.14;84.21
79362;BME280;68830;47.566;19.012;2023-05-16T02:56:28;99390.31;;;13.19;84.14
79362;BME280;68830;47.566;19.012;2023-05-16T02:59:32;99402.53;;;13.28;84.28
79362;BME280;68830;47.566;19.012;2023-05-16T03:02:34;99426.41;;;13.36;84.49
79362;BME280;68830;47.566;19.012;2023-05-16T03:05:36;99378.41;;;13.07;84.54
79362;BME280;68830;47.566;19.012;2023-05-16T03:08:38;99406.75;;;13.14;85.01
79362;BME280;68830;47.566;19.012;2023-05-16T03:11:40;99401.88;;;13.26;85.22
79362;BME280;68830;47.566;19.012;2023-05-16T03:14:45;99389.78;;;13.15;85.44
79362;BME280;68830;47.566;19.012;2023-05-16T03:17:47;99415.56;;;13.38;84.57
79362;BME280;68830;47.566;19.012;2023-05-16T03:20:51;99376.88;;;13.12;85.21
79362;BME280;68830;47.566;19.012;2023-05-16T03:23:58;99393.81;;;13.11;85.49
79362;BME280;68830;47.566;19.012;2023-05-16T03:27:01;99398.78;;;13.14;84.68
79362;BME280;68830;47.566;19.012;2023-05-16T03:30:08;99422.50;;;13.24;85.00
79362;BME280;68830;47.566;19.012;2023-05-16T03:33:10;99425.44;;;13.29;85.17
79362;BME280;68830;47.566;19.012;2023-05-16T03:36:12;99421.78;;;13.30;85.64
79362;BME280;68830;47.566;19.012;2023-05-16T03:39:15;99466.16;;;13.53;85.41
79362;BME280;68830;47.566;19.012;2023-05-16T03:42:17;99440.63;;;13.43;85.15
79362;BME280;68830;47.566;19.012;2023-05-16T03:45:20;99418.69;;;13.41;84.80
79362;BME280;68830;47.566;19.012;2023-05-16T03:48:24;99457.66;;;13.72;84.64
79362;BME280;68830;47.566;19.012;2023-05-16T03:51:26;99378.72;;;13.35;84.14
79362;BME280;68830;47.566;19.012;2023-05-16T03:54:29;99422.16;;;13.65;84.72
79362;BME280;68830;47.566;19.012;2023-05-16T03:57:37;99408.63;;;13.52;84.93
79362;BME280;68830;47.566;19.012;2023-05-16T04:00:45;99458.94;;;13.76;85.04
79362;BME280;68830;47.566;19.012;2023-05-16T04:03:49;99378.06;;;13.33;84.55
79362;BME280;68830;47.566;19.012;2023-05-16T04:06:55;99424.53;;;13.74;83.25
79362;BME280;68830;47.566;19.012;2023-05-16T04:09:57;99394.59;;;13.58;83.55
79362;BME280;68830;47.566;19.012;2023-05-16T04:13:02;99394.97;;;13.55;81.79
79362;BME280;68830;47.566;19.012;2023-05-16T04:16:06;99422.00;;;13.81;82.72
79362;BME280;68830;47.566;19.012;2023-05-16T04:19:08;99396.72;;;13.62;81.64
79362;BME280;68830;47.566;19.012;2023-05-16T04:22:13;99388.91;;;13.61;82.70
79362;BME280;68830;47.566;19.012;2023-05-16T04:25:15;99405.25;;;13.72;82.25
79362;BME280;68830;47.566;19.012;2023-05-16T04:28:19;99438.69;;;13.90;81.54
79362;BME280;68830;47.566;19.012;2023-05-16T04:31:24;99390.41;;;13.63;81.95
79362;BME280;68830;47.566;19.012;2023-05-16T04:34:27;99428.31;;;13.80;82.87
79362;BME280;68830;47.566;19.012;2023-05-16T04:37:32;99428.31;;;13.80;83.14
79362;BME280;68830;47.566;19.012;2023-05-16T04:40:36;99442.28;;;13.82;82.90
79362;BME280;68830;47.566;19.012;2023-05-16T04:43:38;99430.25;;;13.86;81.92
79362;BME280;68830;47.566;19.012;2023-05-16T04:46:42;99432.16;;;13.92;81.39
79362;BME280;68830;47.566;19.012;2023-05-16T04:49:44;99420.22;;;13.73;82.43
79362;BME280;68830;47.566;19.012;2023-05-16T04:52:46;99441.91;;;14.00;81.21
79362;BME280;68830;47.566;19.012;2023-05-16T04:55:51;99432.34;;;13.91;81.52
79362;BME280;68830;47.566;19.012;2023-05-16T04:58:53;99441.63;;;13.95;82.41
79362;BME280;68830;47.566;19.012;2023-05-16T05:02:01;99479.56;;;14.26;81.34
79362;BME280;68830;47.566;19.012;2023-05-16T05:05:03;99420.78;;;13.84;82.13
79362;BME280;68830;47.566;19.012;2023-05-16T05:08:09;99437.31;;;13.94;80.81
79362;BME280;68830;47.566;19.012;2023-05-16T05:11:11;99429.78;;;13.83;82.32
79362;BME280;68830;47.566;19.012;2023-05-16T05:14:13;99476.91;;;14.26;81.21
79362;BME280;68830;47.566;19.012;2023-05-16T05:17:17;99448.63;;;14.11;82.48
79362;BME280;68830;47.566;19.012;2023-05-16T05:20:22;99422.00;;;13.96;82.78
79362;BME280;68830;47.566;19.012;2023-05-16T05:23:24;99479.19;;;14.29;81.08
79362;BME280;68830;47.566;19.012;2023-05-16T05:26:29;99434.91;;;13.84;83.26
79362;BME280;68830;47.566;19.012;2023-05-16T05:29:33;99473.31;;;14.04;83.31
79362;BME280;68830;47.566;19.012;2023-05-16T05:32:37;99426.00;;;13.77;83.59
79362;BME280;68830;47.566;19.012;2023-05-16T05:35:45;99467.88;;;13.98;84.05
79362;BME280;68830;47.566;19.012;2023-05-16T05:38:47;99466.97;;;14.05;83.40
79362;BME280;68830;47.566;19.012;2023-05-16T05:41:49;99471.38;;;13.98;83.21
79362;BME280;68830;47.566;19.012;2023-05-16T05:44:51;99441.91;;;13.85;84.25
79362;BME280;68830;47.566;19.012;2023-05-16T05:47:57;99431.81;;;13.81;84.43
79362;BME280;68830;47.566;19.012;2023-05-16T05:50:59;99493.22;;;14.23;84.47
79362;BME280;68830;47.566;19.012;2023-05-16T05:54:09;99446.03;;;13.88;84.59
79362;BME280;68830;47.566;19.012;2023-05-16T05:57:11;99427.66;;;13.78;83.26
79362;BME280;68830;47.566;19.012;2023-05-16T06:00:15;99432.81;;;13.80;82.37
79362;BME280;68830;47.566;19.012;2023-05-16T06:03:18;99359.59;;;12.40;89.17
79362;BME280;68830;47.566;19.012;2023-05-16T06:06:22;99379.88;;;12.41;87.39
79362;BME280;68830;47.566;19.012;2023-05-16T06:09:27;99367.72;;;12.15;88.24
79362;BME280;68830;47.566;19.012;2023-05-16T06:12:29;99413.31;;;12.50;90.60
79362;BME280;68830;47.566;19.012;2023-05-16T06:15:31;99375.31;;;12.49;89.97
79362;BME280;68830;47.566;19.012;2023-05-16T06:18:34;99341.09;;;12.23;90.40
79362;BME280;68830;47.566;19.012;2023-05-16T06:21:36;99407.16;;;12.80;88.11
79362;BME280;68830;47.566;19.012;2023-05-16T06:24:38;99360.28;;;12.11;90.32
79362;BME280;68830;47.566;19.012;2023-05-16T06:27:40;99432.44;;;12.76;90.20
79362;BME280;68830;47.566;19.012;2023-05-16T06:30:44;99418.44;;;12.20;91.93
79362;BME280;68830;47.566;19.012;2023-05-16T06:33:49;99419.34;;;12.75;90.17
79362;BME280;68830;47.566;19.012;2023-05-16T06:36:51;99411.75;;;13.18;88.29
79362;BME280;68830;47.566;19.012;2023-05-16T06:39:55;99393.03;;;13.49;87.01
79362;BME280;68830;47.566;19.012;2023-05-16T06:42:57;99409.00;;;13.78;85.05
79362;BME280;68830;47.566;19.012;2023-05-16T06:46:00;99447.50;;;14.20;85.25
79362;BME280;68830;47.566;19.012;2023-05-16T06:49:03;99392.34;;;13.99;81.01
79362;BME280;68830;47.566;19.012;2023-05-16T06:52:05;99442.47;;;14.25;84.39
79362;BME280;68830;47.566;19.012;2023-05-16T06:55:08;99422.25;;;14.16;84.38
79362;BME280;68830;47.566;19.012;2023-05-16T06:58:12;99413.34;;;14.23;82.58
79362;BME280;68830;47.566;19.012;2023-05-16T07:01:14;99409.00;;;14.37;80.99
79362;BME280;68830;47.566;19.012;2023-05-16T07:04:18;99375.31;;;13.41;83.03
79362;BME280;68830;47.566;19.012;2023-05-16T07:07:26;99430.25;;;13.34;86.49
79362;BME280;68830;47.566;19.012;2023-05-16T07:10:32;99387.66;;;13.19;86.84
79362;BME280;68830;47.566;19.012;2023-05-16T07:13:34;99453.59;;;13.61;84.81
79362;BME280;68830;47.566;19.012;2023-05-16T07:16:36;99390.69;;;13.08;87.40
79362;BME280;68830;47.566;19.012;2023-05-16T07:19:40;99398.22;;;13.04;87.69
79362;BME280;68830;47.566;19.012;2023-05-16T07:22:43;99392.59;;;12.99;88.73
79362;BME280;68830;47.566;19.012;2023-05-16T07:25:45;99470.84;;;13.51;88.12
79362;BME280;68830;47.566;19.012;2023-05-16T07:28:48;99405.53;;;13.02;88.49
79362;BME280;68830;47.566;19.012;2023-05-16T07:31:50;99404.00;;;13.08;88.09
79362;BME280;68830;47.566;19.012;2023-05-16T07:34:53;99369.66;;;12.98;89.77
79362;BME280;68830;47.566;19.012;2023-05-16T07:37:57;99376.91;;;12.90;89.70
79362;BME280;68830;47.566;19.012;2023-05-16T07:40:59;99456.66;;;13.35;89.40
79362;BME280;68830;47.566;19.012;2023-05-16T07:44:02;99383.72;;;12.84;91.43
79362;BME280;68830;47.566;19.012;2023-05-16T07:47:04;99409.19;;;13.01;90.30
79362;BME280;68830;47.566;19.012;2023-05-16T07:50:11;99411.50;;;13.04;90.06
79362;BME280;68830;47.566;19.012;2023-05-16T07:53:13;99385.88;;;12.89;91.51
79362;BME280;68830;47.566;19.012;2023-05-16T07:56:19;99464.69;;;13.27;90.76
79362;BME280;68830;47.566;19.012;2023-05-16T07:59:21;99427.28;;;13.06;90.59
79362;BME280;68830;47.566;19.012;2023-05-16T08:02:23;99423.88;;;13.12;90.93
79362;BME280;68830;47.566;19.012;2023-05-16T08:05:28;99390.69;;;12.85;90.46
79362;BME280;68830;47.566;19.012;2023-05-16T08:08:31;99384.72;;;12.83;91.32
79362;BME280;68830;47.566;19.012;2023-05-16T08:11:33;99423.06;;;13.11;91.29
79362;BME280;68830;47.566;19.012;2023-05-16T08:14:35;99468.44;;;13.18;93.06
79362;BME280;68830;47.566;19.012;2023-05-16T08:17:37;99393.41;;;12.77;92.89
79362;BME280;68830;47.566;19.012;2023-05-16T08:20:41;99398.00;;;12.83;92.74
79362;BME280;68830;47.566;19.012;2023-05-16T08:23:43;99465.88;;;13.25;92.82
79362;BME280;68830;47.566;19.012;2023-05-16T08:26:45;99461.84;;;13.29;93.27
79362;BME280;68830;47.566;19.012;2023-05-16T08:29:47;99373.75;;;12.63;92.17
79362;BME280;68830;47.566;19.012;2023-05-16T08:32:49;99422.91;;;12.90;93.71
79362;BME280;68830;47.566;19.012;2023-05-16T08:36:03;99399.84;;;12.82;92.04
79362;BME280;68830;47.566;19.012;2023-05-16T08:39:06;99413.84;;;12.99;92.97
79362;BME280;68830;47.566;19.012;2023-05-16T08:42:08;99384.72;;;12.83;92.58
79362;BME280;68830;47.566;19.012;2023-05-16T08:45:12;99440.84;;;13.19;93.78
79362;BME280;68830;47.566;19.012;2023-05-16T08:48:18;99424.53;;;13.14;93.08
79362;BME280;68830;47.566;19.012;2023-05-16T08:51:26;99439.75;;;13.28;93.70
79362;BME280;68830;47.566;19.012;2023-05-16T08:54:29;99370.22;;;12.94;93.29
79362;BME280;68830;47.566;19.012;2023-05-16T08:57:31;99450.50;;;13.35;92.93
79362;BME280;68830;47.566;19.012;2023-05-16T09:00:34;99393.53;;;13.06;92.95
79362;BME280;68830;47.566;19.012;2023-05-16T09:03:37;99390.34;;;13.11;92.70
79362;BME280;68830;47.566;19.012;2023-05-16T09:06:41;99354.38;;;13.00;93.24
79362;BME280;68830;47.566;19.012;2023-05-16T09:09:45;99379.78;;;13.03;93.95
79362;BME280;68830;47.566;19.012;2023-05-16T09:12:47;99424.56;;;13.37;94.37
79362;BME280;68830;47.566;19.012;2023-05-16T09:16:07;99343.81;;;12.92;94.05
79362;BME280;68830;47.566;19.012;2023-05-16T09:19:11;99353.31;;;13.09;94.21
79362;BME280;68830;47.566;19.012;2023-05-16T09:22:15;99418.97;;;13.46;93.61
79362;BME280;68830;47.566;19.012;2023-05-16T09:25:26;99361.63;;;13.06;93.23
79362;BME280;68830;47.566;19.012;2023-05-16T09:28:31;99356.69;;;13.03;94.71
79362;BME280;68830;47.566;19.012;2023-05-16T09:31:33;99351.94;;;13.13;94.02
79362;BME280;68830;47.566;19.012;2023-05-16T09:34:42;99376.94;;;13.27;93.22
79362;BME280;68830;47.566;19.012;2023-05-16T09:37:48;99415.25;;;13.56;93.88
79362;BME280;68830;47.566;19.012;2023-05-16T09:40:50;99351.28;;;13.11;93.32
79362;BME280;68830;47.566;19.012;2023-05-16T09:43:54;99337.34;;;13.09;94.13
79362;BME280;68830;47.566;19.012;2023-05-16T09:46:56;99396.53;;;13.49;93.55
79362;BME280;68830;47.566;19.012;2023-05-16T09:49:59;99347.78;;;13.19;93.19
79362;BME280;68830;47.566;19.012;2023-05-16T09:53:06;99366.13;;;13.29;93.53
79362;BME280;68830;47.566;19.012;2023-05-16T09:56:10;99379.63;;;13.42;93.80
79362;BME280;68830;47.566;19.012;2023-05-16T09:59:13;99369.06;;;13.34;93.59
79362;BME280;68830;47.566;19.012;2023-05-16T10:02:15;99384.38;;;13.46;93.59
79362;BME280;68830;47.566;19.012;2023-05-16T10:05:18;99343.09;;;13.21;93.33
79362;BME280;68830;47.566;19.012;2023-05-16T10:08:24;99415.63;;;13.53;93.86
79362;BME280;68830;47.566;19.012;2023-05-16T10:11:26;99361.81;;;13.28;94.27
79362;BME280;68830;47.566;19.012;2023-05-16T10:14:33;99391.03;;;13.51;94.74
79362;BME280;68830;47.566;19.012;2023-05-16T10:17:38;99339.44;;;13.22;94.31
79362;BME280;68830;47.566;19.012;2023-05-16T10:20:41;99381.66;;;13.55;94.25
79362;BME280;68830;47.566;19.012;2023-05-16T10:23:47;99350.34;;;13.27;94.05
79362;BME280;68830;47.566;19.012;2023-05-16T10:26:52;99341.53;;;13.27;93.74
79362;BME280;68830;47.566;19.012;2023-05-16T10:29:54;99345.41;;;13.39;94.61
79362;BME280;68830;47.566;19.012;2023-05-16T10:32:58;99330.72;;;13.28;94.76
79362;BME280;68830;47.566;19.012;2023-05-16T10:36:02;99313.47;;;13.24;94.24
79362;BME280;68830;47.566;19.012;2023-05-16T10:39:07;99366.16;;;13.58;94.29
79362;BME280;68830;47.566;19.012;2023-05-16T10:42:10;99389.09;;;13.74;94.38
79362;BME280;68830;47.566;19.012;2023-05-16T10:45:16;99326.16;;;13.37;94.73
79362;BME280;68830;47.566;19.012;2023-05-16T10:48:27;99319.38;;;13.34;95.39
79362;BME280;68830;47.566;19.012;2023-05-16T10:51:34;99365.16;;;13.74;94.81
79362;BME280;68830;47.566;19.012;2023-05-16T10:54:41;99300.66;;;13.42;94.79
79362;BME280;68830;47.566;19.012;2023-05-16T10:57:43;99287.28;;;13.36;94.86
79362;BME280;68830;47.566;19.012;2023-05-16T11:01:14;99355.53;;;13.88;94.73
79362;BME280;68830;47.566;19.012;2023-05-16T11:04:17;99322.97;;;13.71;95.19
79362;BME280;68830;47.566;19.012;2023-05-16T11:07:24;99279.75;;;13.54;95.12
79362;BME280;68830;47.566;19.012;2023-05-16T11:10:32;99344.50;;;14.05;94.91
79362;BME280;68830;47.566;19.012;2023-05-16T11:16:47;99335.03;;;14.03;94.95
79362;BME280;68830;47.566;19.012;2023-05-16T11:19:54;99324.31;;;14.11;94.92
79362;BME280;68830;47.566;19.012;2023-05-16T11:23:17;99329.25;;;14.14;94.93
79362;BME280;68830;47.566;19.012;2023-05-16T11:26:21;99312.25;;;14.15;94.37
79362;BME280;68830;47.566;19.012;2023-05-16T11:29:23;99305.97;;;14.23;94.96
79362;BME280;68830;47.566;19.012;2023-05-16T11:32:25;99294.31;;;14.24;94.79
79362;BME280;68830;47.566;19.012;2023-05-16T11:35:28;99301.81;;;14.35;95.04
79362;BME280;68830;47.566;19.012;2023-05-16T11:38:31;99310.44;;;14.37;94.26
79362;BME280;68830;47.566;19.012;2023-05-16T11:41:34;99319.72;;;14.41;94.85
79362;BME280;68830;47.566;19.012;2023-05-16T11:44:36;99312.75;;;14.40;93.89
79362;BME280;68830;47.566;19.012;2023-05-16T11:47:39;99311.72;;;14.41;94.13
79362;BME280;68830;47.566;19.012;2023-05-16T11:50:41;99298.06;;;14.44;94.32
79362;BME280;68830;47.566;19.012;2023-05-16T11:53:43;99292.34;;;14.47;95.21
79362;BME280;68830;47.566;19.012;2023-05-16T11:56:50;99266.81;;;14.38;94.97
79362;BME280;68830;47.566;19.012;2023-05-16T11:59:52;99282.50;;;14.48;94.09
79362;BME280;68830;47.566;19.012;2023-05-16T12:03:00;99278.59;;;14.44;93.70
79362;BME280;68830;47.566;19.012;2023-05-16T12:06:04;99290.75;;;14.53;94.27
79362;BME280;68830;47.566;19.012;2023-05-16T12:09:06;99273.41;;;14.57;94.29
79362;BME280;68830;47.566;19.012;2023-05-16T12:12:14;99277.44;;;14.74;94.29
79362;BME280;68830;47.566;19.012;2023-05-16T12:15:16;99264.31;;;14.73;93.66
79362;BME280;68830;47.566;19.012;2023-05-16T12:18:18;99250.72;;;14.68;94.94
79362;BME280;68830;47.566;19.012;2023-05-16T12:21:22;99263.13;;;14.82;94.07
79362;BME280;68830;47.566;19.012;2023-05-16T12:24:28;99261.38;;;14.89;93.76
79362;BME280;68830;47.566;19.012;2023-05-16T12:27:32;99273.09;;;14.94;94.49
79362;BME280;68830;47.566;19.012;2023-05-16T12:30:34;99247.97;;;14.82;94.26
79362;BME280;68830;47.566;19.012;2023-05-16T12:33:36;99276.06;;;15.06;94.25
79362;BME280;68830;47.566;19.012;2023-05-16T12:36:39;99278.75;;;15.13;93.85
79362;BME280;68830;47.566;19.012;2023-05-16T12:39:41;99275.06;;;15.14;93.82
79362;BME280;68830;47.566;19.012;2023-05-16T12:42:48;99267.88;;;15.14;93.49
79362;BME280;68830;47.566;19.012;2023-05-16T12:45:51;99267.31;;;15.19;93.08
79362;BME280;68830;47.566;19.012;2023-05-16T12:49:00;99264.25;;;15.22;93.82
79362;BME280;68830;47.566;19.012;2023-05-16T12:52:03;99257.69;;;15.18;93.07
79362;BME280;68830;47.566;19.012;2023-05-16T12:55:06;99244.09;;;15.13;93.55
79362;BME280;68830;47.566;19.012;2023-05-16T12:58:12;99272.75;;;15.32;93.28
79362;BME280;68830;47.566;19.012;2023-05-16T13:01:14;99265.31;;;15.28;93.36
79362;BME280;68830;47.566;19.012;2023-05-16T13:04:16;99259.94;;;15.21;92.71
79362;BME280;68830;47.566;19.012;2023-05-16T13:07:21;99270.25;;;15.31;92.57
79362;BME280;68830;47.566;19.012;2023-05-16T13:10:23;99268.56;;;15.58;95.60
79362;BME280;68830;47.566;19.012;2023-05-16T13:13:28;99263.94;;;15.38;93.97
79362;BME280;68830;47.566;19.012;2023-05-16T13:16:36;99254.09;;;15.39;94.17
79362;BME280;68830;47.566;19.012;2023-05-16T13:19:38;99252.25;;;15.39;92.39
79362;BME280;68830;47.566;19.012;2023-05-16T13:22:41;99254.13;;;15.45;93.55
79362;BME280;68830;47.566;19.012;2023-05-16T13:25:43;99233.22;;;15.49;93.56
79362;BME280;68830;47.566;19.012;2023-05-16T13:28:51;99241.44;;;15.47;93.29
79362;BME280;68830;47.566;19.012;2023-05-16T13:31:53;99209.97;;;15.36;93.94
79362;BME280;68830;47.566;19.012;2023-05-16T13:34:56;99218.03;;;15.49;92.47
79362;BME280;68830;47.566;19.012;2023-05-16T13:37:58;99213.94;;;15.47;92.98
79362;BME280;68830;47.566;19.012;2023-05-16T13:41:00;99199.94;;;15.45;94.03
79362;BME280;68830;47.566;19.012;2023-05-16T13:44:04;99198.34;;;15.50;93.42
79362;BME280;68830;47.566;19.012;2023-05-16T13:47:06;99191.78;;;15.53;93.50
79362;BME280;68830;47.566;19.012;2023-05-16T13:50:08;99176.38;;;15.55;93.72
79362;BME280;68830;47.566;19.012;2023-05-16T13:53:11;99186.53;;;15.66;93.20
79362;BME280;68830;47.566;19.012;2023-05-16T13:56:13;99192.28;;;15.70;92.80
79362;BME280;68830;47.566;19.012;2023-05-16T13:59:17;99175.03;;;15.66;92.56
79362;BME280;68830;47.566;19.012;2023-05-16T14:02:38;99190.88;;;15.80;92.23
79362;BME280;68830;47.566;19.012;2023-05-16T14:05:41;99182.25;;;15.85;92.70
79362;BME280;68830;47.566;19.012;2023-05-16T14:08:43;99167.22;;;15.77;92.69
79362;BME280;68830;47.566;19.012;2023-05-16T14:11:45;99175.09;;;15.92;92.41
79362;BME280;68830;47.566;19.012;2023-05-16T14:14:48;99172.22;;;16.00;91.90
79362;BME280;68830;47.566;19.012;2023-05-16T14:17:50;99182.91;;;16.00;93.02
79362;BME280;68830;47.566;19.012;2023-05-16T14:20:52;99168.13;;;15.98;91.88
79362;BME280;68830;47.566;19.012;2023-05-16T14:23:57;99172.84;;;16.02;92.45
79362;BME280;68830;47.566;19.012;2023-05-16T14:26:59;99171.66;;;16.11;91.91
79362;BME280;68830;47.566;19.012;2023-05-16T14:30:03;99150.44;;;15.83;92.73
79362;BME280;68830;47.566;19.012;2023-05-16T14:33:06;99179.44;;;16.00;93.50
79362;BME280;68830;47.566;19.012;2023-05-16T14:36:09;99190.13;;;16.13;91.73
79362;BME280;68830;47.566;19.012;2023-05-16T14:39:11;99166.72;;;16.08;92.06
79362;BME280;68830;47.566;19.012;2023-05-16T14:42:13;99170.81;;;16.11;91.43
79362;BME280;68830;47.566;19.012;2023-05-16T14:45:17;99190.34;;;16.11;91.42
79362;BME280;68830;47.566;19.012;2023-05-16T14:48:19;99203.09;;;16.09;91.98
79362;BME280;68830;47.566;19.012;2023-05-16T14:51:21;99205.75;;;16.09;91.72
79362;BME280;68830;47.566;19.012;2023-05-16T14:54:23;99199.56;;;16.02;92.49
79362;BME280;68830;47.566;19.012;2023-05-16T14:57:25;99202.63;;;16.06;91.81
79362;BME280;68830;47.566;19.012;2023-05-16T15:00:28;99192.16;;;16.04;92.43
79362;BME280;68830;47.566;19.012;2023-05-16T15:03:32;99199.34;;;15.97;92.14
79362;BME280;68830;47.566;19.012;2023-05-16T15:06:54;99188.44;;;15.92;92.93
79362;BME280;68830;47.566;19.012;2023-05-16T15:09:57;99194.59;;;15.93;92.56
79362;BME280;68830;47.566;19.012;2023-05-16T15:12:59;99192.53;;;15.88;93.26
79362;BME280;68830;47.566;19.012;2023-05-16T15:16:02;99195.63;;;15.85;93.89
79362;BME280;68830;47.566;19.012;2023-05-16T15:19:05;99190.44;;;15.70;94.40
79362;BME280;68830;47.566;19.012;2023-05-16T15:22:07;99194.38;;;15.81;93.80
79362;BME280;68830;47.566;19.012;2023-05-16T15:25:11;99185.75;;;15.79;93.96
79362;BME280;68830;47.566;19.012;2023-05-16T15:28:13;99191.09;;;15.79;93.23
79362;BME280;68830;47.566;19.012;2023-05-16T15:31:16;99191.09;;;15.79;94.06
79362;BME280;68830;47.566;19.012;2023-05-16T15:34:19;99180.56;;;15.71;95.60
79362;BME280;68830;47.566;19.012;2023-05-16T15:37:21;99190.66;;;15.75;94.68
79362;BME280;68830;47.566;19.012;2023-05-16T15:40:24;99186.34;;;15.74;94.78
79362;BME280;68830;47.566;19.012;2023-05-16T15:43:27;99183.03;;;15.66;94.76
79362;BME280;68830;47.566;19.012;2023-05-16T15:46:31;99184.19;;;15.57;94.14
79362;BME280;68830;47.566;19.012;2023-05-16T15:49:34;99176.19;;;15.57;93.64
79362;BME280;68830;47.566;19.012;2023-05-16T15:52:36;99153.53;;;15.39;95.27
79362;BME280;68830;47.566;19.012;2023-05-16T15:55:38;99178.22;;;15.54;94.66
79362;BME280;68830;47.566;19.012;2023-05-16T15:58:40;99154.16;;;15.41;95.34
79362;BME280;68830;47.566;19.012;2023-05-16T16:01:43;99150.31;;;15.50;94.01
79362;BME280;68830;47.566;19.012;2023-05-16T16:04:46;99151.34;;;15.49;95.12